sensor_id;sensor_type;location;lat;lon;timestamp;pressure;altitude;pressure_sealevel;temperature;humidity
43745;BME280;29359;53.048;8.732;2023-03-13T00:00:48;100367.34;;;6.99;100.00
43745;BME280;29359;53.048;8.732;2023-03-13T00:02:49;100359.38;;;7.04;100.00
43745;BME280;29359;53.048;8.732;2023-03-13T00:04:51;100354.03;;;7.08;100.00
43745;BME280;29359;53.048;8.732;2023-03-13T00:06:53;100350.50;;;7.09;100.00
43745;BME280;29359;53.048;8.732;2023-03-13T00:08:54;100343.53;;;7.08;100.00
43745;BME280;29359;53.048;8.732;2023-03-13T00:10:56;100338.25;;;7.10;100.00
43745;BME280;29359;53.048;8.732;2023-03-13T00:12:57;100340.88;;;7.10;100.00
43745;BME280;29359;53.048;8.732;2023-03-13T00:14:59;100338.16;;;7.13;100.00
43745;BME280;29359;53.048;8.732;2023-03-13T00:17:01;100338.13;;;7.14;100.00
43745;BME280;29359;53.048;8.732;2023-03-13T00:19:04;100326.78;;;7.14;100.00
43745;BME280;29359;53.048;8.732;2023-03-13T00:21:07;100327.69;;;7.13;100.00
43745;BME280;29359;53.048;8.732;2023-03-13T00:23:09;100328.53;;;7.13;100.00
43745;BME280;29359;53.048;8.732;2023-03-13T00:25:10;100319.75;;;7.14;100.00
43745;BME280;29359;53.048;8.732;2023-03-13T00:27:12;100318.84;;;7.17;100.00
43745;BME280;29359;53.048;8.732;2023-03-13T00:29:13;100313.53;;;7.18;100.00
43745;BME280;29359;53.048;8.732;2023-03-13T00:31:20;100314.44;;;7.17;100.00
43745;BME280;29359;53.048;8.732;2023-03-13T00:33:22;100310.84;;;7.21;100.00
43745;BME280;29359;53.048;8.732;2023-03-13T00:35:24;100303.75;;;7.25;100.00
43745;BME280;29359;53.048;8.732;2023-03-13T00:37:25;100292.38;;;7.26;100.00
43745;BME280;29359;53.048;8.732;2023-03-13T00:39:26;100294.06;;;7.29;100.00
43745;BME280;29359;53.048;8.732;2023-03-13T00:41:30;100296.63;;;7.30;100.00
43745;BME280;29359;53.048;8.732;2023-03-13T00:43:33;100290.59;;;7.27;100.00
43745;BME280;29359;53.048;8.732;2023-03-13T00:45:34;100292.41;;;7.24;100.00
43745;BME280;29359;53.048;8.732;2023-03-13T00:47:36;100285.34;;;7.27;100.00
43745;BME280;29359;53.048;8.732;2023-03-13T00:49:37;100287.03;;;7.29;100.00
43745;BME280;29359;53.048;8.732;2023-03-13T00:51:39;100287.91;;;7.30;100.00
43745;BME280;29359;53.048;8.732;2023-03-13T00:53:41;100284.41;;;7.29;100.00
43745;BME280;29359;53.048;8.732;2023-03-13T00:56:00;100277.28;;;7.34;100.00
43745;BME280;29359;53.048;8.732;2023-03-13T00:58:02;100279.84;;;7.39;100.00
43745;BME280;29359;53.048;8.732;2023-03-13T01:00:04;100271.84;;;7.43;100.00
43745;BME280;29359;53.048;8.732;2023-03-13T01:02:06;100272.72;;;7.44;100.00
43745;BME280;29359;53.048;8.732;2023-03-13T01:04:10;100270.00;;;7.47;100.00
43745;BME280;29359;53.048;8.732;2023-03-13T01:06:15;100261.22;;;7.48;100.00
43745;BME280;29359;53.048;8.732;2023-03-13T01:08:17;100266.47;;;7.48;100.00
43745;BME280;29359;53.048;8.732;2023-03-13T01:10:18;100260.41;;;7.46;100.00
43745;BME280;29359;53.048;8.732;2023-03-13T01:12:20;100256.09;;;7.43;100.00
43745;BME280;29359;53.048;8.732;2023-03-13T01:14:21;100249.06;;;7.44;100.00
43745;BME280;29359;53.048;8.732;2023-03-13T01:16:25;100242.97;;;7.43;100.00
43745;BME280;29359;53.048;8.732;2023-03-13T01:18:26;100233.28;;;7.45;100.00
43745;BME280;29359;53.048;8.732;2023-03-13T01:20:29;100230.66;;;7.45;100.00
43745;BME280;29359;53.048;8.732;2023-03-13T01:22:31;100214.94;;;7.44;100.00
43745;BME280;29359;53.048;8.732;2023-03-13T01:24:32;100221.88;;;7.46;100.00
43745;BME280;29359;53.048;8.732;2023-03-13T01:26:34;100205.25;;;7.46;100.00
43745;BME280;29359;53.048;8.732;2023-03-13T01:28:36;100194.75;;;7.46;100.00
43745;BME280;29359;53.048;8.732;2023-03-13T01:30:37;100204.34;;;7.47;100.00
43745;BME280;29359;53.048;8.732;2023-03-13T01:32:39;100183.41;;;7.44;100.00
43745;BME280;29359;53.048;8.732;2023-03-13T01:34:40;100186.88;;;7.46;100.00
43745;BME280;29359;53.048;8.732;2023-03-13T01:36:42;100179.88;;;7.45;100.00
43745;BME280;29359;53.048;8.732;2023-03-13T01:38:47;100178.13;;;7.45;100.00
43745;BME280;29359;53.048;8.732;2023-03-13T01:40:49;100165.91;;;7.44;100.00
43745;BME280;29359;53.048;8.732;2023-03-13T01:42:55;100165.84;;;7.46;100.00
43745;BME280;29359;53.048;8.732;2023-03-13T01:44:57;100151.91;;;7.44;100.00
43745;BME280;29359;53.048;8.732;2023-03-13T01:46:58;100151.00;;;7.45;100.00
43745;BME280;29359;53.048;8.732;2023-03-13T01:49:07;100137.88;;;7.45;100.00
43745;BME280;29359;53.048;8.732;2023-03-13T01:51:19;100138.72;;;7.45;100.00
43745;BME280;29359;53.048;8.732;2023-03-13T01:53:22;100134.34;;;7.46;100.00
43745;BME280;29359;53.048;8.732;2023-03-13T01:55:24;100123.84;;;7.46;100.00
43745;BME280;29359;53.048;8.732;2023-03-13T01:57:28;100123.84;;;7.46;100.00
43745;BME280;29359;53.048;8.732;2023-03-13T01:59:46;100115.00;;;7.48;100.00
43745;BME280;29359;53.048;8.732;2023-03-13T02:01:50;100107.91;;;7.52;100.00
43745;BME280;29359;53.048;8.732;2023-03-13T02:03:54;100104.38;;;7.53;100.00
43745;BME280;29359;53.048;8.732;2023-03-13T02:05:58;100094.72;;;7.53;100.00
43745;BME280;29359;53.048;8.732;2023-03-13T02:10:15;100089.59;;;7.49;100.00
43745;BME280;29359;53.048;8.732;2023-03-13T02:12:25;100086.88;;;7.52;100.00
43745;BME280;29359;53.048;8.732;2023-03-13T02:14:32;100086.81;;;7.55;100.00
43745;BME280;29359;53.048;8.732;2023-03-13T02:16:36;100084.19;;;7.55;100.00
43745;BME280;29359;53.048;8.732;2023-03-13T02:18:37;100071.94;;;7.54;100.00
43745;BME280;29359;53.048;8.732;2023-03-13T02:20:39;100068.50;;;7.52;100.00
43745;BME280;29359;53.048;8.732;2023-03-13T02:23:15;100064.13;;;7.52;100.00
43745;BME280;29359;53.048;8.732;2023-03-13T02:27:25;100045.69;;;7.54;100.00
43745;BME280;29359;53.048;8.732;2023-03-13T02:29:26;100043.91;;;7.54;100.00
43745;BME280;29359;53.048;8.732;2023-03-13T02:31:28;100036.00;;;7.56;100.00
43745;BME280;29359;53.048;8.732;2023-03-13T02:33:36;100028.78;;;7.63;100.00
43745;BME280;29359;53.048;8.732;2023-03-13T02:35:39;100018.34;;;7.61;100.00
43745;BME280;29359;53.048;8.732;2023-03-13T02:37:44;100011.31;;;7.62;100.00
43745;BME280;29359;53.048;8.732;2023-03-13T02:39:49;100009.56;;;7.62;100.00
43745;BME280;29359;53.048;8.732;2023-03-13T02:41:52;100002.63;;;7.60;100.00
43745;BME280;29359;53.048;8.732;2023-03-13T02:43:54;99991.25;;;7.59;100.00
43745;BME280;29359;53.048;8.732;2023-03-13T02:46:06;99994.84;;;7.56;100.00
43745;BME280;29359;53.048;8.732;2023-03-13T02:48:08;99993.09;;;7.55;100.00
43745;BME280;29359;53.048;8.732;2023-03-13T02:50:10;99979.97;;;7.55;100.00
43745;BME280;29359;53.048;8.732;2023-03-13T02:52:28;99976.41;;;7.58;100.00
43745;BME280;29359;53.048;8.732;2023-03-13T02:54:33;99969.38;;;7.59;100.00
43745;BME280;29359;53.048;8.732;2023-03-13T02:56:37;99962.34;;;7.59;100.00
43745;BME280;29359;53.048;8.732;2023-03-13T02:58:43;99963.22;;;7.60;100.00
43745;BME280;29359;53.048;8.732;2023-03-13T03:00:52;99962.34;;;7.59;100.00
43745;BME280;29359;53.048;8.732;2023-03-13T03:02:53;99948.31;;;7.60;100.00
43745;BME280;29359;53.048;8.732;2023-03-13T03:04:56;99950.91;;;7.62;100.00
43745;BME280;29359;53.048;8.732;2023-03-13T03:06:57;99942.97;;;7.63;100.00
43745;BME280;29359;53.048;8.732;2023-03-13T03:08:59;99944.69;;;7.64;100.00
43745;BME280;29359;53.048;8.732;2023-03-13T03:11:01;99928.06;;;7.64;100.00
43745;BME280;29359;53.048;8.732;2023-03-13T03:13:02;99928.94;;;7.64;100.00
43745;BME280;29359;53.048;8.732;2023-03-13T03:15:05;99919.28;;;7.65;100.00
43745;BME280;29359;53.048;8.732;2023-03-13T03:17:06;99921.00;;;7.66;100.00
43745;BME280;29359;53.048;8.732;2023-03-13T03:19:08;99918.31;;;7.67;100.00
43745;BME280;29359;53.048;8.732;2023-03-13T03:21:11;99908.69;;;7.68;100.00
43745;BME280;29359;53.048;8.732;2023-03-13T03:23:12;99900.78;;;7.68;100.00
43745;BME280;29359;53.048;8.732;2023-03-13T03:25:14;99901.59;;;7.70;100.00
43745;BME280;29359;53.048;8.732;2023-03-13T03:27:15;99897.31;;;7.67;100.00
43745;BME280;29359;53.048;8.732;2023-03-13T03:29:17;99892.00;;;7.69;100.00
43745;BME280;29359;53.048;8.732;2023-03-13T03:31:19;99892.88;;;7.69;100.00
43745;BME280;29359;53.048;8.732;2023-03-13T03:33:22;99886.75;;;7.69;100.00
43745;BME280;29359;53.048;8.732;2023-03-13T03:35:23;99873.63;;;7.69;100.00
43745;BME280;29359;53.048;8.732;2023-03-13T03:37:25;99869.16;;;7.71;100.00
43745;BME280;29359;53.048;8.732;2023-03-13T03:39:26;99863.06;;;7.70;100.00
43745;BME280;29359;53.048;8.732;2023-03-13T03:41:28;99857.75;;;7.72;100.00
43745;BME280;29359;53.048;8.732;2023-03-13T03:43:29;99847.25;;;7.72;100.00
43745;BME280;29359;53.048;8.732;2023-03-13T03:45:31;99840.13;;;7.75;100.00
43745;BME280;29359;53.048;8.732;2023-03-13T03:47:32;99839.22;;;7.76;100.00
43745;BME280;29359;53.048;8.732;2023-03-13T03:49:34;99833.97;;;7.76;100.00
43745;BME280;29359;53.048;8.732;2023-03-13T03:51:35;99830.34;;;7.80;100.00
43745;BME280;29359;53.048;8.732;2023-03-13T03:53:37;99814.59;;;7.80;100.00
43745;BME280;29359;53.048;8.732;2023-03-13T03:55:39;99800.56;;;7.80;100.00
43745;BME280;29359;53.048;8.732;2023-03-13T03:57:40;99817.22;;;7.79;100.00
43745;BME280;29359;53.048;8.732;2023-03-13T03:59:42;99802.44;;;7.76;100.00
43745;BME280;29359;53.048;8.732;2023-03-13T04:01:43;99792.72;;;7.78;100.00
43745;BME280;29359;53.048;8.732;2023-03-13T04:03:45;99793.63;;;7.77;100.00
43745;BME280;29359;53.048;8.732;2023-03-13T04:05:46;99795.47;;;7.75;100.00
43745;BME280;29359;53.048;8.732;2023-03-13T04:07:48;99795.47;;;7.75;100.00
43745;BME280;29359;53.048;8.732;2023-03-13T04:09:49;99787.63;;;7.74;100.00
43745;BME280;29359;53.048;8.732;2023-03-13T04:11:51;99777.97;;;7.74;100.00
43745;BME280;29359;53.048;8.732;2023-03-13T04:13:52;99778.88;;;7.73;100.00
43745;BME280;29359;53.048;8.732;2023-03-13T04:15:54;99767.53;;;7.73;100.00
43745;BME280;29359;53.048;8.732;2023-03-13T04:17:55;99770.00;;;7.77;100.00
43745;BME280;29359;53.048;8.732;2023-03-13T04:19:57;99761.19;;;7.78;100.00
43745;BME280;29359;53.048;8.732;2023-03-13T04:21:58;99756.69;;;7.83;100.00
43745;BME280;29359;53.048;8.732;2023-03-13T04:24:00;99755.59;;;7.89;100.00
43745;BME280;29359;53.048;8.732;2023-03-13T04:26:01;99752.88;;;7.92;100.00
43745;BME280;29359;53.048;8.732;2023-03-13T04:28:03;99741.50;;;7.92;100.00
43745;BME280;29359;53.048;8.732;2023-03-13T04:30:05;99730.06;;;7.93;100.00
43745;BME280;29359;53.048;8.732;2023-03-13T04:32:07;99721.22;;;7.95;100.00
43745;BME280;29359;53.048;8.732;2023-03-13T04:34:09;99717.75;;;7.95;100.00
43745;BME280;29359;53.048;8.732;2023-03-13T04:36:10;99708.94;;;7.96;100.00
43745;BME280;29359;53.048;8.732;2023-03-13T04:38:12;99696.59;;;7.98;100.00
43745;BME280;29359;53.048;8.732;2023-03-13T04:40:13;99706.19;;;7.99;100.00
43745;BME280;29359;53.048;8.732;2023-03-13T04:42:15;99710.50;;;8.01;100.00
43745;BME280;29359;53.048;8.732;2023-03-13T04:44:16;99699.00;;;8.04;100.00
43745;BME280;29359;53.048;8.732;2023-03-13T04:46:18;99694.56;;;8.06;100.00
43745;BME280;29359;53.048;8.732;2023-03-13T04:48:19;99691.94;;;8.06;100.00
43745;BME280;29359;53.048;8.732;2023-03-13T04:50:21;99695.31;;;8.09;100.00
43745;BME280;29359;53.048;8.732;2023-03-13T04:52:22;99691.75;;;8.10;100.00
43745;BME280;29359;53.048;8.732;2023-03-13T04:54:24;99684.66;;;8.12;100.00
43745;BME280;29359;53.048;8.732;2023-03-13T04:56:26;99684.50;;;8.17;100.00
43745;BME280;29359;53.048;8.732;2023-03-13T04:58:43;99687.13;;;8.17;100.00
43745;BME280;29359;53.048;8.732;2023-03-13T05:00:47;99680.16;;;8.16;100.00
43745;BME280;29359;53.048;8.732;2023-03-13T05:02:48;99676.56;;;8.18;100.00
43745;BME280;29359;53.048;8.732;2023-03-13T05:04:50;99682.63;;;8.20;100.00
43745;BME280;29359;53.048;8.732;2023-03-13T05:06:52;99671.19;;;8.22;100.00
43745;BME280;29359;53.048;8.732;2023-03-13T05:08:54;99655.34;;;8.23;100.00
43745;BME280;29359;53.048;8.732;2023-03-13T05:10:55;99661.44;;;8.25;100.00
43745;BME280;29359;53.048;8.732;2023-03-13T05:12:57;99651.66;;;8.29;100.00
43745;BME280;29359;53.048;8.732;2023-03-13T05:14:58;99659.56;;;8.29;100.00
43745;BME280;29359;53.048;8.732;2023-03-13T05:17:00;99656.88;;;8.30;100.00
43745;BME280;29359;53.048;8.732;2023-03-13T05:19:01;99648.00;;;8.33;100.00
43745;BME280;29359;53.048;8.732;2023-03-13T05:21:03;99648.84;;;8.35;100.00
43745;BME280;29359;53.048;8.732;2023-03-13T05:23:04;99644.38;;;8.37;100.00
43745;BME280;29359;53.048;8.732;2023-03-13T05:25:06;99632.94;;;8.38;100.00
43745;BME280;29359;53.048;8.732;2023-03-13T05:27:08;99632.88;;;8.39;100.00
43745;BME280;29359;53.048;8.732;2023-03-13T05:29:09;99619.59;;;8.42;100.00
43745;BME280;29359;53.048;8.732;2023-03-13T05:31:11;99621.31;;;8.43;100.00
43745;BME280;29359;53.048;8.732;2023-03-13T05:33:13;99620.34;;;8.46;100.00
43745;BME280;29359;53.048;8.732;2023-03-13T05:35:14;99615.75;;;8.51;100.00
43745;BME280;29359;53.048;8.732;2023-03-13T05:37:16;99630.56;;;8.54;100.00
43745;BME280;29359;53.048;8.732;2023-03-13T05:39:18;99616.56;;;8.53;100.00
43745;BME280;29359;53.048;8.732;2023-03-13T05:41:19;99619.19;;;8.53;100.00
43745;BME280;29359;53.048;8.732;2023-03-13T05:43:21;99606.66;;;8.60;100.00
43745;BME280;29359;53.048;8.732;2023-03-13T05:45:22;99592.44;;;8.64;100.00
43745;BME280;29359;53.048;8.732;2023-03-13T05:47:24;99590.47;;;8.70;100.00
43745;BME280;29359;53.048;8.732;2023-03-13T05:49:25;99593.88;;;8.72;100.00
43745;BME280;29359;53.048;8.732;2023-03-13T05:51:27;99595.53;;;8.75;100.00
43745;BME280;29359;53.048;8.732;2023-03-13T05:53:28;99583.16;;;8.77;100.00
43745;BME280;29359;53.048;8.732;2023-03-13T05:55:30;99581.19;;;8.82;100.00
43745;BME280;29359;53.048;8.732;2023-03-13T05:57:31;99587.19;;;8.86;100.00
43745;BME280;29359;53.048;8.732;2023-03-13T05:59:33;99576.66;;;8.86;100.00
43745;BME280;29359;53.048;8.732;2023-03-13T06:01:34;99565.16;;;8.88;100.00
43745;BME280;29359;53.048;8.732;2023-03-13T06:03:36;99554.38;;;8.94;100.00
43745;BME280;29359;53.048;8.732;2023-03-13T06:05:37;99564.78;;;8.97;100.00
43745;BME280;29359;53.048;8.732;2023-03-13T06:07:39;99566.34;;;9.01;100.00
43745;BME280;29359;53.048;8.732;2023-03-13T06:09:40;99553.97;;;9.03;100.00
43745;BME280;29359;53.048;8.732;2023-03-13T06:11:42;99553.84;;;9.06;100.00
43745;BME280;29359;53.048;8.732;2023-03-13T06:13:43;99544.03;;;9.10;100.00
43745;BME280;29359;53.048;8.732;2023-03-13T06:15:52;99543.09;;;9.12;100.00
43745;BME280;29359;53.048;8.732;2023-03-13T06:17:54;99540.38;;;9.14;100.00
43745;BME280;29359;53.048;8.732;2023-03-13T06:19:56;99540.25;;;9.17;100.00
43745;BME280;29359;53.048;8.732;2023-03-13T06:21:57;99539.41;;;9.17;100.00
43745;BME280;29359;53.048;8.732;2023-03-13T06:23:59;99532.09;;;9.23;100.00
43745;BME280;29359;53.048;8.732;2023-03-13T06:26:00;99530.03;;;9.30;100.00
43745;BME280;29359;53.048;8.732;2023-03-13T06:28:02;99535.25;;;9.31;100.00
43745;BME280;29359;53.048;8.732;2023-03-13T06:30:03;99523.72;;;9.34;100.00
43745;BME280;29359;53.048;8.732;2023-03-13T06:32:05;99535.09;;;9.34;100.00
43745;BME280;29359;53.048;8.732;2023-03-13T06:34:11;99524.56;;;9.34;100.00
43745;BME280;29359;53.048;8.732;2023-03-13T06:36:13;99524.50;;;9.36;100.00
43745;BME280;29359;53.048;8.732;2023-03-13T06:38:14;99519.03;;;9.40;100.00
43745;BME280;29359;53.048;8.732;2023-03-13T06:40:16;99515.41;;;9.43;100.00
43745;BME280;29359;53.048;8.732;2023-03-13T06:42:17;99515.25;;;9.46;100.00
43745;BME280;29359;53.048;8.732;2023-03-13T06:44:19;99513.41;;;9.48;100.00
43745;BME280;29359;53.048;8.732;2023-03-13T06:46:22;99507.16;;;9.51;100.00
43745;BME280;29359;53.048;8.732;2023-03-13T06:48:24;99508.78;;;9.53;100.00
43745;BME280;29359;53.048;8.732;2023-03-13T06:50:26;99509.25;;;9.63;100.00
43745;BME280;29359;53.048;8.732;2023-03-13T06:52:27;99499.28;;;9.69;100.00
43745;BME280;29359;53.048;8.732;2023-03-13T06:54:43;99507.84;;;9.74;100.00
43745;BME280;29359;53.048;8.732;2023-03-13T06:56:44;99497.06;;;9.79;100.00
43745;BME280;29359;53.048;8.732;2023-03-13T06:58:47;99500.50;;;9.81;100.00
43745;BME280;29359;53.048;8.732;2023-03-13T07:00:49;99509.19;;;9.83;100.00
43745;BME280;29359;53.048;8.732;2023-03-13T07:02:51;99495.09;;;9.84;100.00
43745;BME280;29359;53.048;8.732;2023-03-13T07:04:52;99501.78;;;9.91;100.00
43745;BME280;29359;53.048;8.732;2023-03-13T07:06:54;99492.69;;;9.98;100.00
43745;BME280;29359;53.048;8.732;2023-03-13T07:08:55;99501.22;;;10.03;100.00
43745;BME280;29359;53.048;8.732;2023-03-13T07:10:59;99493.16;;;10.06;100.00
43745;BME280;29359;53.048;8.732;2023-03-13T07:13:01;99486.91;;;10.09;100.00
43745;BME280;29359;53.048;8.732;2023-03-13T07:15:03;99499.94;;;10.12;100.00
43745;BME280;29359;53.048;8.732;2023-03-13T07:17:05;99496.16;;;10.18;100.00
43745;BME280;29359;53.048;8.732;2023-03-13T07:19:07;99493.59;;;10.16;100.00
43745;BME280;29359;53.048;8.732;2023-03-13T07:21:09;99488.97;;;10.21;100.00
43745;BME280;29359;53.048;8.732;2023-03-13T07:23:10;99492.94;;;10.30;100.00
43745;BME280;29359;53.048;8.732;2023-03-13T07:25:12;99496.22;;;10.35;100.00
43745;BME280;29359;53.048;8.732;2023-03-13T07:27:13;99495.97;;;10.39;100.00
43745;BME280;29359;53.048;8.732;2023-03-13T07:29:17;99510.00;;;10.42;100.00
43745;BME280;29359;53.048;8.732;2023-03-13T07:31:20;99513.19;;;10.48;100.00
43745;BME280;29359;53.048;8.732;2023-03-13T07:33:24;99505.03;;;10.53;100.00
43745;BME280;29359;53.048;8.732;2023-03-13T07:35:25;99501.31;;;10.57;100.00
43745;BME280;29359;53.048;8.732;2023-03-13T07:37:27;99495.03;;;10.59;100.00
43745;BME280;29359;53.048;8.732;2023-03-13T07:39:28;99501.78;;;10.65;100.00
43745;BME280;29359;53.048;8.732;2023-03-13T07:41:30;99501.47;;;10.71;100.00
43745;BME280;29359;53.048;8.732;2023-03-13T07:43:31;99492.47;;;10.75;100.00
43745;BME280;29359;53.048;8.732;2023-03-13T07:45:33;99495.66;;;10.82;100.00
43745;BME280;29359;53.048;8.732;2023-03-13T07:47:35;99492.81;;;10.86;100.00
43745;BME280;29359;53.048;8.732;2023-03-13T07:49:36;99495.28;;;10.89;100.00
43745;BME280;29359;53.048;8.732;2023-03-13T07:51:42;99505.69;;;10.92;100.00
43745;BME280;29359;53.048;8.732;2023-03-13T07:53:45;99501.03;;;10.97;100.00
43745;BME280;29359;53.048;8.732;2023-03-13T07:55:56;99498.16;;;11.02;100.00
43745;BME280;29359;53.048;8.732;2023-03-13T07:57:58;99506.00;;;11.04;100.00
43745;BME280;29359;53.048;8.732;2023-03-13T07:59:59;99489.06;;;11.08;100.00
43745;BME280;29359;53.048;8.732;2023-03-13T08:02:01;99496.75;;;11.12;100.00
43745;BME280;29359;53.048;8.732;2023-03-13T08:04:03;99487.81;;;11.15;100.00
43745;BME280;29359;53.048;8.732;2023-03-13T08:06:11;99480.41;;;11.21;100.00
43745;BME280;29359;53.048;8.732;2023-03-13T08:08:13;99477.47;;;11.27;100.00
43745;BME280;29359;53.048;8.732;2023-03-13T08:10:14;99483.28;;;11.34;100.00
43745;BME280;29359;53.048;8.732;2023-03-13T08:12:16;99477.84;;;11.37;100.00
43745;BME280;29359;53.048;8.732;2023-03-13T08:14:17;99469.69;;;11.42;100.00
43745;BME280;29359;53.048;8.732;2023-03-13T08:16:24;99467.81;;;11.44;100.00
43745;BME280;29359;53.048;8.732;2023-03-13T08:18:26;99467.13;;;11.40;100.00
43745;BME280;29359;53.048;8.732;2023-03-13T08:20:28;99474.09;;;11.41;100.00
43745;BME280;29359;53.048;8.732;2023-03-13T08:22:29;99462.75;;;11.39;100.00
43745;BME280;29359;53.048;8.732;2023-03-13T08:24:31;99449.63;;;11.38;100.00
43745;BME280;29359;53.048;8.732;2023-03-13T08:26:34;99455.78;;;11.38;100.00
43745;BME280;29359;53.048;8.732;2023-03-13T08:28:37;99458.34;;;11.40;100.00
43745;BME280;29359;53.048;8.732;2023-03-13T08:30:39;99454.59;;;11.44;100.00
43745;BME280;29359;53.048;8.732;2023-03-13T08:32:40;99458.09;;;11.44;100.00
43745;BME280;29359;53.048;8.732;2023-03-13T08:34:42;99465.94;;;11.46;100.00
43745;BME280;29359;53.048;8.732;2023-03-13T08:36:44;99458.09;;;11.44;100.00
43745;BME280;29359;53.048;8.732;2023-03-13T08:38:46;99452.63;;;11.47;100.00
43745;BME280;29359;53.048;8.732;2023-03-13T08:40:48;99456.91;;;11.50;100.00
43745;BME280;29359;53.048;8.732;2023-03-13T08:42:49;99457.59;;;11.53;100.00
43745;BME280;29359;53.048;8.732;2023-03-13T08:44:51;99452.97;;;11.57;100.00
43745;BME280;29359;53.048;8.732;2023-03-13T08:46:52;99451.09;;;11.59;100.00
43745;BME280;29359;53.048;8.732;2023-03-13T08:48:54;99450.94;;;11.62;100.00
43745;BME280;29359;53.048;8.732;2023-03-13T08:51:10;99456.91;;;11.65;100.00
43745;BME280;29359;53.048;8.732;2023-03-13T08:53:12;99459.56;;;11.65;100.00
43745;BME280;29359;53.048;8.732;2023-03-13T08:55:14;99462.97;;;11.68;100.00
43745;BME280;29359;53.048;8.732;2023-03-13T08:57:15;99470.69;;;11.72;100.00
43745;BME280;29359;53.048;8.732;2023-03-13T08:59:18;99460.72;;;11.77;100.00
43745;BME280;29359;53.048;8.732;2023-03-13T09:01:22;99467.78;;;11.77;100.00
43745;BME280;29359;53.048;8.732;2023-03-13T09:03:23;99456.13;;;11.81;100.00
43745;BME280;29359;53.048;8.732;2023-03-13T09:05:25;99467.47;;;11.83;100.00
43745;BME280;29359;53.048;8.732;2023-03-13T09:07:26;99460.22;;;11.86;100.00
43745;BME280;29359;53.048;8.732;2023-03-13T09:09:28;99464.56;;;11.87;100.00
43745;BME280;29359;53.048;8.732;2023-03-13T09:11:31;99467.06;;;11.90;100.00
43745;BME280;29359;53.048;8.732;2023-03-13T09:13:36;99468.66;;;11.93;100.00
43745;BME280;29359;53.048;8.732;2023-03-13T09:15:38;99463.97;;;11.98;100.00
43745;BME280;29359;53.048;8.732;2023-03-13T09:17:39;99465.50;;;12.02;100.00
43745;BME280;29359;53.048;8.732;2023-03-13T09:19:41;99462.00;;;12.02;100.00
43745;BME280;29359;53.048;8.732;2023-03-13T09:21:59;99466.28;;;12.04;100.00
43745;BME280;29359;53.048;8.732;2023-03-13T09:24:01;99462.59;;;12.07;100.00
43745;BME280;29359;53.048;8.732;2023-03-13T09:26:03;99469.69;;;12.06;100.00
43745;BME280;29359;53.048;8.732;2023-03-13T09:28:05;99465.34;;;12.05;100.00
43745;BME280;29359;53.048;8.732;2023-03-13T09:30:07;99471.75;;;12.01;100.00
43745;BME280;29359;53.048;8.732;2023-03-13T09:32:09;99462.88;;;12.02;100.00
43745;BME280;29359;53.048;8.732;2023-03-13T09:34:11;99465.69;;;11.99;100.00
43745;BME280;29359;53.048;8.732;2023-03-13T09:36:12;99456.72;;;12.02;100.00
43745;BME280;29359;53.048;8.732;2023-03-13T09:38:18;99475.16;;;12.03;100.00
43745;BME280;29359;53.048;8.732;2023-03-13T09:40:21;99457.31;;;12.07;100.00
43745;BME280;29359;53.048;8.732;2023-03-13T09:42:34;99470.38;;;12.10;100.00
43745;BME280;29359;53.048;8.732;2023-03-13T09:44:45;99465.69;;;12.15;100.00
43745;BME280;29359;53.048;8.732;2023-03-13T09:48:59;99452.28;;;12.34;100.00
43745;BME280;29359;53.048;8.732;2023-03-13T09:51:09;99456.00;;;12.45;100.00
43745;BME280;29359;53.048;8.732;2023-03-13T09:53:18;99458.81;;;12.58;100.00
43745;BME280;29359;53.048;8.732;2023-03-13T09:55:29;99469.53;;;12.71;100.00
43745;BME280;29359;53.048;8.732;2023-03-13T09:57:39;99458.50;;;12.78;100.00
43745;BME280;29359;53.048;8.732;2023-03-13T09:59:48;99466.06;;;12.84;100.00
43745;BME280;29359;53.048;8.732;2023-03-13T10:01:54;99455.09;;;12.90;98.68
43745;BME280;29359;53.048;8.732;2023-03-13T10:04:13;99454.72;;;12.97;98.36
43745;BME280;29359;53.048;8.732;2023-03-13T10:06:22;99437.81;;;12.99;98.28
43745;BME280;29359;53.048;8.732;2023-03-13T10:08:28;99447.03;;;13.08;97.76
43745;BME280;29359;53.048;8.732;2023-03-13T10:10:41;99450.06;;;13.16;97.09
43745;BME280;29359;53.048;8.732;2023-03-13T10:12:46;99427.47;;;13.25;96.29
43745;BME280;29359;53.048;8.732;2023-03-13T10:17:37;99433.81;;;13.50;93.79
43745;BME280;29359;53.048;8.732;2023-03-13T10:19:41;99437.69;;;13.59;91.59
43745;BME280;29359;53.048;8.732;2023-03-13T10:21:50;99441.00;;;13.63;90.45
43745;BME280;29359;53.048;8.732;2023-03-13T10:24:04;99440.16;;;13.62;90.51
43745;BME280;29359;53.048;8.732;2023-03-13T10:26:24;99423.00;;;13.68;90.70
43745;BME280;29359;53.048;8.732;2023-03-13T10:28:27;99429.31;;;13.79;89.87
43745;BME280;29359;53.048;8.732;2023-03-13T10:30:33;99431.78;;;13.82;89.20
43745;BME280;29359;53.048;8.732;2023-03-13T10:32:35;99427.13;;;13.86;88.29
43745;BME280;29359;53.048;8.732;2023-03-13T10:34:55;99422.59;;;13.88;88.36
43745;BME280;29359;53.048;8.732;2023-03-13T10:36:59;99426.19;;;13.87;88.40
43745;BME280;29359;53.048;8.732;2023-03-13T10:39:07;99433.59;;;13.82;87.73
43745;BME280;29359;53.048;8.732;2023-03-13T10:41:19;99429.44;;;13.78;87.91
43745;BME280;29359;53.048;8.732;2023-03-13T10:43:25;99440.41;;;13.72;89.06
43745;BME280;29359;53.048;8.732;2023-03-13T10:45:34;99452.56;;;13.62;89.86
43745;BME280;29359;53.048;8.732;2023-03-13T10:47:37;99453.72;;;13.58;91.06
43745;BME280;29359;53.048;8.732;2023-03-13T10:49:49;99452.94;;;13.56;91.48
43745;BME280;29359;53.048;8.732;2023-03-13T10:51:57;99446.59;;;13.58;91.96
43745;BME280;29359;53.048;8.732;2023-03-13T10:53:59;99438.66;;;13.58;91.56
43745;BME280;29359;53.048;8.732;2023-03-13T10:56:12;99439.88;;;13.67;91.37
43745;BME280;29359;53.048;8.732;2023-03-13T10:58:22;99449.50;;;13.82;91.22